| time (UTC) | temp C | wind direction | speed KPH | gust KPH | rain 1hr cm | rain 24hr cm | rain mn cm | humidity % | barometer mb |
| 20260503225532 | 24 | 143 | 9.7 | 20.9 | 0.00 | 0.00 | 0.00 | 42 | 1015.7 |
| 20260503225048 | 24 | 136 | 8.0 | 20.9 | 0.00 | 0.00 | 0.00 | 44 | 1015.7 |
| 20260503224606 | 24 | 138 | 9.7 | 19.3 | 0.00 | 0.00 | 0.00 | 42 | 1015.7 |
| 20260503224505 | 24 | 115 | 9.7 | 19.3 | 0.00 | 0.00 | 0.00 | 43 | 1015.7 |
| 20260503224020 | 24 | 141 | 9.7 | 19.3 | 0.00 | 0.00 | 0.00 | 42 | 1015.6 |
| 20260503223532 | 24 | 174 | 9.7 | 19.3 | 0.00 | 0.00 | 0.00 | 42 | 1015.7 |
| 20260503223043 | 24 | 129 | 9.7 | 22.5 | 0.00 | 0.00 | 0.00 | 43 | 1015.7 |
| 20260503222555 | 24 | 129 | 11.3 | 22.5 | 0.00 | 0.00 | 0.00 | 43 | 1015.9 |
| 20260503222010 | 24 | 169 | 11.3 | 27.4 | 0.00 | 0.00 | 0.00 | 42 | 1016.0 |
| 20260503221532 | 24 | 154 | 6.4 | 27.4 | 0.00 | 0.00 | 0.00 | 41 | 1016.1 |
| 20260503221046 | 25 | 145 | 9.7 | 24.1 | 0.00 | 0.00 | 0.00 | 42 | 1016.2 |
| 20260503220558 | 25 | 182 | 12.9 | 24.1 | 0.00 | 0.00 | 0.00 | 42 | 1016.3 |
| 20260503220048 | 24 | 175 | 12.9 | 22.5 | 0.00 | 0.00 | 0.00 | 44 | 1016.4 |
| 20260503215506 | 24 | 125 | 9.7 | 25.7 | 0.00 | 0.00 | 0.00 | 42 | 1016.4 |
| 20260503215024 | 25 | 159 | 14.5 | 25.7 | 0.00 | 0.00 | 0.00 | 40 | 1016.3 |
| 20260503214539 | 25 | 155 | 8.0 | 22.5 | 0.00 | 0.00 | 0.00 | 42 | 1016.5 |
| 20260503214048 | 25 | 115 | 4.8 | 20.9 | 0.00 | 0.00 | 0.00 | 43 | 1016.6 |
| 20260503213558 | 25 | 173 | 8.0 | 19.3 | 0.00 | 0.00 | 0.00 | 43 | 1016.9 |
| 20260503213016 | 25 | 166 | 9.7 | 19.3 | 0.00 | 0.00 | 0.00 | 43 | 1016.8 |
| 20260503212528 | 25 | 205 | 4.8 | 20.9 | 0.00 | 0.00 | 0.00 | 41 | 1016.8 |
| 20260503212042 | 25 | 147 | 12.9 | 20.9 | 0.00 | 0.00 | 0.00 | 38 | 1016.9 |
| 20260503211552 | 25 | 159 | 8.0 | 22.5 | 0.00 | 0.00 | 0.00 | 41 | 1016.9 |
| 20260503211015 | 25 | 189 | 9.7 | 22.5 | 0.00 | 0.00 | 0.00 | 41 | 1017.1 |
| 20260503210521 | 25 | 169 | 8.0 | 27.4 | 0.00 | 0.00 | 0.00 | 44 | 1017.2 |
| 20260503210012 | 25 | 141 | 9.7 | 27.4 | 0.00 | 0.00 | 0.00 | 41 | 1017.3 |
| 20260503205522 | 25 | 132 | 9.7 | 19.3 | 0.00 | 0.00 | 0.00 | 43 | 1017.5 |
| 20260503205038 | 25 | 149 | 6.4 | 19.3 | 0.00 | 0.00 | 0.00 | 44 | 1017.7 |
| 20260503204611 | 25 | 128 | 6.4 | 20.9 | 0.00 | 0.00 | 0.00 | 43 | 1017.6 |
| 20260503204005 | 25 | 171 | 9.7 | 20.9 | 0.00 | 0.00 | 0.00 | 41 | 1017.8 |
| 20260503203519 | 25 | 180 | 8.0 | 20.9 | 0.00 | 0.00 | 0.00 | 42 | 1017.9 |
| 20260503203036 | 24 | 184 | 8.0 | 20.9 | 0.00 | 0.00 | 0.00 | 44 | 1018.0 |
| 20260503202547 | 24 | 157 | 9.7 | 20.9 | 0.00 | 0.00 | 0.00 | 42 | 1018.2 |
| 20260503202102 | 24 | 132 | 11.3 | 22.5 | 0.00 | 0.00 | 0.00 | 41 | 1018.2 |
| 20260503202002 | 25 | 119 | 11.3 | 22.5 | 0.00 | 0.00 | 0.00 | 41 | 1018.2 |
| 20260503201516 | 25 | 171 | 14.5 | 22.5 | 0.00 | 0.00 | 0.00 | 42 | 1018.4 |
| 20260503201029 | 25 | 202 | 8.0 | 19.3 | 0.00 | 0.00 | 0.00 | 44 | 1018.5 |
| 20260503200540 | 24 | 175 | 9.7 | 24.1 | 0.00 | 0.00 | 0.00 | 42 | 1018.4 |
| 20260503200036 | 24 | 146 | 14.5 | 24.1 | 0.00 | 0.00 | 0.00 | 41 | 1018.5 |
| 20260503195549 | 24 | 194 | 6.4 | 19.3 | 0.00 | 0.00 | 0.00 | 47 | 1018.4 |
| 20260503195059 | 24 | 115 | 9.7 | 22.5 | 0.00 | 0.00 | 0.00 | 39 | 1018.5 |
| 20260503195002 | 24 | 125 | 12.9 | 22.5 | 0.00 | 0.00 | 0.00 | 41 | 1018.6 |
| 20260503194515 | 24 | 200 | 4.8 | 22.5 | 0.00 | 0.00 | 0.00 | 41 | 1018.7 |
| 20260503194026 | 24 | 200 | 9.7 | 20.9 | 0.00 | 0.00 | 0.00 | 42 | 1018.8 |
| 20260503193543 | 24 | 136 | 8.0 | 24.1 | 0.00 | 0.00 | 0.00 | 40 | 1018.9 |
| 20260503193059 | 24 | 130 | 12.9 | 24.1 | 0.00 | 0.00 | 0.00 | 41 | 1018.9 |
| 20260503192509 | 24 | 153 | 9.7 | 19.3 | 0.00 | 0.00 | 0.00 | 42 | 1019.0 |
| 20260503192025 | 24 | 197 | 4.8 | 20.9 | 0.00 | 0.00 | 0.00 | 44 | 1019.0 |
| 20260503191604 | 24 | 130 | 11.3 | 20.9 | 0.00 | 0.00 | 0.00 | 43 | 1019.0 |
| 20260503191049 | 24 | 184 | 8.0 | 22.5 | 0.00 | 0.00 | 0.00 | 42 | 1019.1 |
| 20260503190505 | 24 | 159 | 9.7 | 19.3 | 0.00 | 0.00 | 0.00 | 39 | 1019.2 |
| 20260503190054 | 24 | 183 | 12.9 | 24.1 | 0.00 | 0.00 | 0.00 | 40 | 1019.3 |
| 20260503185509 | 23 | 163 | 14.5 | 24.1 | 0.00 | 0.00 | 0.00 | 41 | 1019.4 |
| 20260503185021 | 23 | 178 | 11.3 | 20.9 | 0.00 | 0.00 | 0.00 | 40 | 1019.3 |
| 20260503184537 | 23 | 129 | 11.3 | 20.9 | 0.00 | 0.00 | 0.00 | 43 | 1019.5 |
| 20260503184048 | 23 | 207 | 9.7 | 22.5 | 0.00 | 0.00 | 0.00 | 40 | 1019.6 |
| 20260503183602 | 23 | 106 | 12.9 | 22.5 | 0.00 | 0.00 | 0.00 | 40 | 1019.7 |
| 20260503183502 | 23 | 150 | 11.3 | 22.5 | 0.00 | 0.00 | 0.00 | 41 | 1019.7 |
| 20260503183016 | 23 | 148 | 12.9 | 20.9 | 0.00 | 0.00 | 0.00 | 43 | 1019.8 |
| 20260503182525 | 23 | 176 | 11.3 | 20.9 | 0.00 | 0.00 | 0.00 | 41 | 1019.8 |
| 20260503182043 | 23 | 160 | 9.7 | 20.9 | 0.00 | 0.00 | 0.00 | 45 | 1019.9 |
| 20260503181552 | 23 | 105 | 12.9 | 20.9 | 0.00 | 0.00 | 0.00 | 41 | 1020.0 |
| 20260503181006 | 23 | 171 | 8.0 | 25.7 | 0.00 | 0.00 | 0.00 | 44 | 1020.0 |
| 20260503180515 | 23 | 189 | 11.3 | 25.7 | 0.00 | 0.00 | 0.00 | 42 | 1020.3 |
| 20260503180013 | 23 | 134 | 8.0 | 22.5 | 0.00 | 0.00 | 0.00 | 43 | 1020.3 |
| 20260503175526 | 23 | 176 | 12.9 | 22.5 | 0.00 | 0.00 | 0.00 | 44 | 1020.4 |
| 20260503175041 | 23 | 130 | 12.9 | 19.3 | 0.00 | 0.00 | 0.00 | 44 | 1020.6 |
| 20260503174554 | 23 | 146 | 4.8 | 25.7 | 0.00 | 0.00 | 0.00 | 44 | 1020.5 |
| 20260503174007 | 23 | 153 | 8.0 | 30.6 | 0.00 | 0.00 | 0.00 | 44 | 1020.8 |
| 20260503173517 | 23 | 174 | 12.9 | 30.6 | 0.00 | 0.00 | 0.00 | 43 | 1020.9 |
| 20260503173031 | 23 | 98 | 8.0 | 19.3 | 0.00 | 0.00 | 0.00 | 46 | 1020.8 |
| 20260503172541 | 23 | 168 | 9.7 | 19.3 | 0.00 | 0.00 | 0.00 | 47 | 1021.0 |
| 20260503172058 | 23 | 178 | 6.4 | 19.3 | 0.00 | 0.00 | 0.00 | 45 | 1021.1 |
| 20260503171513 | 23 | 148 | 11.3 | 25.7 | 0.00 | 0.00 | 0.00 | 44 | 1021.1 |
| 20260503171021 | 23 | 140 | 14.5 | 25.7 | 0.00 | 0.00 | 0.00 | 47 | 1021.2 |
| 20260503170537 | 22 | 200 | 8.0 | 22.5 | 0.00 | 0.00 | 0.00 | 49 | 1021.3 |
| 20260503150504 | 20 | 229 | 8.0 | 16.1 | 0.00 | 0.00 | 0.00 | 64 | 1021.9 |
| 20260503131014 | 9 | 11 | 0.0 | 0.0 | 0.00 | 0.00 | 0.00 | 95 | 1021.4 |
| 20260503130522 | 8 | 11 | 0.0 | 0.0 | 0.00 | 0.00 | 0.00 | 95 | 1021.3 |
| 20260503110556 | 6 | 11 | 0.0 | 0.0 | 0.00 | 0.00 | 0.00 | 93 | 1020.6 |
| 20260503081555 | 7 | 11 | 0.0 | 0.0 | 0.00 | 0.00 | 0.00 | 91 | 1020.0 |
| 20260503081011 | 7 | 11 | 0.0 | 0.0 | 0.00 | 0.00 | 0.00 | 91 | 1020.1 |
| 20260503080523 | 8 | 11 | 0.0 | 0.0 | 0.00 | 0.00 | 0.00 | 91 | 1020.1 |
| 20260503072559 | 8 | 11 | 0.0 | 0.0 | 0.00 | 0.00 | 0.00 | 91 | 1020.4 |
| 20260503072010 | 8 | 11 | 0.0 | 0.0 | 0.00 | 0.00 | 0.00 | 91 | 1020.5 |
| 20260503071522 | 8 | 11 | 0.0 | 0.0 | 0.00 | 0.00 | 0.00 | 91 | 1020.6 |
| 20260503071032 | 8 | 11 | 0.0 | 0.0 | 0.00 | 0.00 | 0.00 | 91 | 1020.6 |
| 20260503070546 | 8 | 11 | 0.0 | 0.0 | 0.00 | 0.00 | 0.00 | 91 | 1020.7 |
| 20260503055024 | 9 | 11 | 0.0 | 0.0 | 0.00 | 0.00 | 0.00 | 88 | 1020.8 |
| 20260503054553 | 9 | 11 | 0.0 | 0.0 | 0.00 | 0.00 | 0.00 | 88 | 1020.8 |
| 20260503054052 | 10 | 11 | 0.0 | 0.0 | 0.00 | 0.00 | 0.00 | 88 | 1020.8 |
| 20260503053558 | 10 | 11 | 0.0 | 0.0 | 0.00 | 0.00 | 0.00 | 88 | 1020.8 |
| 20260503053022 | 10 | 11 | 0.0 | 0.0 | 0.00 | 0.00 | 0.00 | 88 | 1020.7 |
| 20260503052527 | 10 | 11 | 0.0 | 0.0 | 0.00 | 0.00 | 0.00 | 87 | 1020.6 |
| 20260503052041 | 10 | 11 | 0.0 | 0.0 | 0.00 | 0.00 | 0.00 | 87 | 1020.8 |
| 20260503051553 | 10 | 11 | 0.0 | 0.0 | 0.00 | 0.00 | 0.00 | 87 | 1020.8 |
| 20260503051010 | 10 | 11 | 0.0 | 0.0 | 0.00 | 0.00 | 0.00 | 87 | 1020.8 |
| 20260503050520 | 10 | 11 | 0.0 | 0.0 | 0.00 | 0.00 | 0.00 | 87 | 1020.7 |
| 20260503050021 | 10 | 11 | 0.0 | 0.0 | 0.00 | 0.00 | 0.00 | 87 | 1020.6 |
| 20260503045530 | 10 | 11 | 0.0 | 0.0 | 0.00 | 0.00 | 0.00 | 87 | 1020.8 |
| 20260503045041 | 10 | 11 | 0.0 | 0.0 | 0.00 | 0.00 | 0.00 | 86 | 1020.8 |
| 20260503044505 | 10 | 11 | 0.0 | 0.0 | 0.00 | 0.00 | 0.00 | 86 | 1020.8 |
| 20260503044017 | 10 | 11 | 0.0 | 0.0 | 0.00 | 0.00 | 0.00 | 86 | 1020.6 |
| 20260503043535 | 11 | 11 | 0.0 | 0.0 | 0.00 | 0.00 | 0.00 | 86 | 1020.7 |
| 20260503043054 | 11 | 11 | 0.0 | 0.0 | 0.00 | 0.00 | 0.00 | 85 | 1020.7 |
| 20260503042507 | 11 | 11 | 0.0 | 0.0 | 0.00 | 0.00 | 0.00 | 85 | 1020.7 |
| 20260503042020 | 11 | 11 | 0.0 | 0.0 | 0.00 | 0.00 | 0.00 | 85 | 1020.7 |
| 20260503041538 | 11 | 11 | 0.0 | 0.0 | 0.00 | 0.00 | 0.00 | 85 | 1020.7 |
| 20260503041057 | 11 | 11 | 0.0 | 0.0 | 0.00 | 0.00 | 0.00 | 84 | 1020.8 |
| 20260503040516 | 11 | 11 | 0.0 | 0.0 | 0.00 | 0.00 | 0.00 | 84 | 1020.6 |
| 20260503040009 | 11 | 11 | 0.0 | 0.0 | 0.00 | 0.00 | 0.00 | 83 | 1020.6 |
| 20260503035524 | 11 | 11 | 0.0 | 0.0 | 0.00 | 0.00 | 0.00 | 83 | 1020.4 |
| 20260503035039 | 12 | 11 | 0.0 | 0.0 | 0.00 | 0.00 | 0.00 | 83 | 1020.4 |
| 20260503034549 | 12 | 11 | 0.0 | 0.0 | 0.00 | 0.00 | 0.00 | 82 | 1020.4 |
| 20260503034006 | 12 | 11 | 0.0 | 0.0 | 0.00 | 0.00 | 0.00 | 82 | 1020.5 |
| 20260503033523 | 12 | 11 | 0.0 | 0.0 | 0.00 | 0.00 | 0.00 | 82 | 1020.4 |
| 20260503033037 | 12 | 11 | 0.0 | 0.0 | 0.00 | 0.00 | 0.00 | 81 | 1020.5 |
| 20260503032553 | 12 | 11 | 0.0 | 0.0 | 0.00 | 0.00 | 0.00 | 81 | 1020.3 |
| 20260503032008 | 12 | 11 | 0.0 | 0.0 | 0.00 | 0.00 | 0.00 | 81 | 1020.2 |
| 20260503031523 | 13 | 11 | 0.0 | 0.0 | 0.00 | 0.00 | 0.00 | 81 | 1020.1 |
| 20260503031040 | 13 | 11 | 0.0 | 0.0 | 0.00 | 0.00 | 0.00 | 80 | 1020.1 |
| 20260503030553 | 13 | 11 | 0.0 | 0.0 | 0.00 | 0.00 | 0.00 | 79 | 1020.1 |
| 20260503030049 | 13 | 11 | 0.0 | 0.0 | 0.00 | 0.00 | 0.00 | 79 | 1019.9 |
| 20260503025509 | 13 | 11 | 0.0 | 0.0 | 0.00 | 0.00 | 0.00 | 79 | 1019.9 |
| 20260503025023 | 13 | 11 | 0.0 | 0.0 | 0.00 | 0.00 | 0.00 | 78 | 1019.8 |
| 20260503024537 | 14 | 11 | 0.0 | 0.0 | 0.00 | 0.00 | 0.00 | 77 | 1019.7 |
| 20260503024049 | 14 | 11 | 0.0 | 0.0 | 0.00 | 0.00 | 0.00 | 76 | 1019.7 |
| 20260503023503 | 15 | 11 | 0.0 | 0.0 | 0.00 | 0.00 | 0.00 | 76 | 1019.7 |
| 20260503023025 | 15 | 11 | 0.0 | 0.0 | 0.00 | 0.00 | 0.00 | 75 | 1019.7 |
| 20260503022537 | 15 | 11 | 0.0 | 0.0 | 0.00 | 0.00 | 0.00 | 75 | 1019.6 |
| 20260503022053 | 15 | 11 | 0.0 | 0.0 | 0.00 | 0.00 | 0.00 | 74 | 1019.4 |
| 20260503021513 | 16 | 11 | 0.0 | 0.0 | 0.00 | 0.00 | 0.00 | 74 | 1019.2 |
| 20260503021027 | 16 | 11 | 0.0 | 0.0 | 0.00 | 0.00 | 0.00 | 73 | 1019.1 |
| 20260503020545 | 16 | 11 | 0.0 | 0.0 | 0.00 | 0.00 | 0.00 | 72 | 1019.1 |
| 20260503020040 | 16 | 11 | 0.0 | 0.0 | 0.00 | 0.00 | 0.00 | 70 | 1019.0 |
| 20260503015551 | 17 | 11 | 0.0 | 0.0 | 0.00 | 0.00 | 0.00 | 69 | 1018.9 |
| 20260503015006 | 17 | 11 | 0.0 | 0.0 | 0.00 | 0.00 | 0.00 | 68 | 1018.8 |
| 20260503014523 | 17 | 11 | 0.0 | 0.0 | 0.00 | 0.00 | 0.00 | 67 | 1018.8 |
| 20260503014046 | 18 | 11 | 0.0 | 0.0 | 0.00 | 0.00 | 0.00 | 66 | 1018.8 |
| 20260503013556 | 18 | 11 | 0.0 | 0.0 | 0.00 | 0.00 | 0.00 | 65 | 1018.8 |
| 20260503013033 | 18 | 11 | 0.0 | 0.0 | 0.00 | 0.00 | 0.00 | 65 | 1018.7 |
| 20260503012536 | 19 | 11 | 0.0 | 0.0 | 0.00 | 0.00 | 0.00 | 63 | 1018.7 |
| 20260503012053 | 20 | 11 | 0.0 | 0.0 | 0.00 | 0.00 | 0.00 | 63 | 1018.6 |
| 20260503011513 | 20 | 11 | 0.0 | 0.0 | 0.00 | 0.00 | 0.00 | 61 | 1018.7 |
| 20260503011027 | 20 | 11 | 0.0 | 0.0 | 0.00 | 0.00 | 0.00 | 59 | 1018.7 |
| 20260503010551 | 20 | 11 | 0.0 | 0.0 | 0.00 | 0.00 | 0.00 | 57 | 1018.6 |
| 20260503010049 | 20 | 11 | 0.0 | 0.0 | 0.00 | 0.00 | 0.00 | 54 | 1018.5 |
| 20260503005553 | 21 | 11 | 0.0 | 0.0 | 0.00 | 0.00 | 0.00 | 53 | 1018.6 |
| 20260503005009 | 21 | 11 | 0.0 | 1.6 | 0.00 | 0.00 | 0.00 | 53 | 1018.6 |
| 20260503004533 | 21 | 11 | 0.0 | 1.6 | 0.00 | 0.00 | 0.00 | 52 | 1018.6 |
| 20260503004043 | 21 | 360 | 0.0 | 0.0 | 0.00 | 0.00 | 0.00 | 50 | 1018.6 |
| 20260503003552 | 21 | 34 | 0.0 | 3.2 | 0.00 | 0.00 | 0.00 | 51 | 1018.6 |
| 20260503003014 | 21 | 34 | 0.0 | 6.4 | 0.00 | 0.00 | 0.00 | 49 | 1018.5 |
| 20260503002529 | 21 | 34 | 1.6 | 6.4 | 0.00 | 0.00 | 0.00 | 45 | 1018.5 |
| 20260503002043 | 21 | 48 | 0.0 | 4.8 | 0.00 | 0.00 | 0.00 | 46 | 1018.5 |
| 20260503001557 | 21 | 31 | 0.0 | 4.8 | 0.00 | 0.00 | 0.00 | 45 | 1018.5 |
| 20260503001019 | 21 | 30 | 0.0 | 11.3 | 0.00 | 0.00 | 0.00 | 46 | 1018.6 |
| 20260503000528 | 21 | 30 | 3.2 | 11.3 | 0.00 | 0.00 | 0.00 | 47 | 1018.6 |
| 20260503000026 | 21 | 80 | 4.8 | 12.9 | 0.00 | 0.00 | 0.00 | 47 | 1018.5 |
| 20260502235538 | 21 | 59 | 1.6 | 11.3 | 0.00 | 0.00 | 0.00 | 47 | 1018.5 |
| 20260502235054 | 21 | 78 | 3.2 | 11.3 | 0.00 | 0.00 | 0.00 | 47 | 1018.5 |
| 20260502234511 | 21 | 65 | 1.6 | 14.5 | 0.00 | 0.00 | 0.00 | 47 | 1018.6 |
| 20260502234025 | 21 | 51 | 1.6 | 12.9 | 0.00 | 0.00 | 0.00 | 47 | 1018.5 |
| 20260502233539 | 21 | 67 | 1.6 | 17.7 | 0.00 | 0.00 | 0.00 | 47 | 1018.5 |
| 20260502233048 | 22 | 52 | 4.8 | 17.7 | 0.00 | 0.00 | 0.00 | 46 | 1018.5 |
| 20260502232507 | 22 | 42 | 3.2 | 17.7 | 0.00 | 0.00 | 0.00 | 46 | 1018.5 |
| 20260502232016 | 22 | 30 | 0.0 | 12.9 | 0.00 | 0.00 | 0.00 | 46 | 1018.5 |
| 20260502231534 | 21 | 61 | 4.8 | 12.9 | 0.00 | 0.00 | 0.00 | 46 | 1018.5 |
| 20260502231047 | 21 | 92 | 4.8 | 17.7 | 0.00 | 0.00 | 0.00 | 45 | 1018.4 |
| 20260502230505 | 22 | 50 | 8.0 | 17.7 | 0.00 | 0.00 | 0.00 | 44 | 1018.5 |
| 20260502230104 | 22 | 70 | 6.4 | 14.5 | 0.00 | 0.00 | 0.00 | 47 | 1018.4 |
| 20260502230002 | 22 | 49 | 3.2 | 16.1 | 0.00 | 0.00 | 0.00 | 48 | 1018.4 |